createdAt,value
2023-11-10T00:02:11.526Z,7.90
2023-11-10T00:07:18.218Z,7.90
2023-11-10T00:12:21.326Z,7.90
2023-11-10T00:17:24.398Z,7.90
2023-11-10T00:22:32.700Z,8.00
2023-11-10T00:27:35.939Z,8.00
2023-11-10T00:32:40.469Z,8.10
2023-11-10T00:37:45.130Z,8.10
2023-11-10T00:42:48.257Z,8.10
2023-11-10T00:47:51.356Z,8.20
2023-11-10T00:52:55.873Z,8.20
2023-11-10T00:57:59.532Z,8.10
2023-11-10T01:03:05.119Z,8.00
2023-11-10T01:08:09.691Z,8.00
2023-11-10T01:13:15.284Z,8.00
2023-11-10T01:18:19.000Z,8.00
2023-11-10T01:23:23.683Z,8.00
2023-11-10T01:28:27.166Z,8.10
2023-11-10T01:33:30.381Z,8.10
2023-11-10T01:38:36.663Z,8.10
2023-11-10T01:43:39.755Z,8.20
2023-11-10T01:48:42.990Z,8.20
2023-11-10T01:53:47.572Z,8.20
2023-11-10T01:58:50.648Z,8.20
2023-11-10T02:03:54.335Z,8.20
2023-11-10T02:08:58.885Z,8.20
2023-11-10T02:14:05.022Z,8.10
2023-11-10T02:19:16.250Z,8.10
2023-11-10T02:24:22.844Z,8.10
2023-11-10T02:29:27.427Z,8.10
2023-11-10T02:34:30.614Z,8.10
2023-11-10T02:39:33.721Z,8.10
2023-11-10T02:44:38.713Z,8.10
2023-11-10T02:49:42.478Z,8.10
2023-11-10T02:54:45.693Z,8.00
2023-11-10T02:59:50.351Z,8.00
2023-11-10T03:04:53.521Z,8.00
2023-11-10T03:09:56.616Z,7.90
2023-11-10T03:15:01.093Z,8.00
2023-11-10T03:20:04.330Z,7.90
2023-11-10T03:25:08.182Z,7.90
2023-11-10T03:30:13.636Z,7.90
2023-11-10T03:35:16.806Z,7.80
2023-11-10T03:40:21.643Z,7.80
2023-11-10T03:45:26.220Z,7.90
2023-11-10T03:50:29.384Z,7.90
2023-11-10T03:55:33.121Z,7.80
2023-11-10T04:00:46.093Z,7.90
2023-11-10T04:05:52.448Z,7.90
2023-11-10T04:10:57.252Z,7.90
2023-11-10T04:16:01.921Z,7.90
2023-11-10T04:21:05.101Z,7.80
2023-11-10T04:26:08.712Z,7.80
2023-11-10T04:31:15.163Z,7.80
2023-11-10T04:36:19.637Z,7.80
2023-11-10T04:41:23.623Z,7.80
2023-11-10T04:46:28.164Z,7.80
2023-11-10T04:51:32.522Z,7.80
2023-11-10T04:56:45.136Z,7.90
2023-11-10T05:01:50.469Z,7.80
2023-11-10T05:06:54.088Z,7.90
2023-11-10T05:11:58.464Z,7.80
2023-11-10T05:17:02.961Z,7.90
2023-11-10T05:22:09.134Z,7.90
2023-11-10T05:27:13.688Z,8.00
2023-11-10T05:32:18.174Z,8.00
2023-11-10T05:37:22.177Z,8.00
2023-11-10T05:42:25.451Z,7.90
2023-11-10T05:47:29.994Z,7.90
2023-11-10T05:52:33.125Z,7.90
2023-11-10T05:57:37.416Z,7.90
2023-11-10T06:02:43.462Z,7.90
2023-11-10T06:07:48.785Z,7.90
2023-11-10T06:12:52.747Z,8.00
2023-11-10T06:17:57.857Z,7.80
2023-11-10T06:23:01.076Z,7.80
2023-11-10T06:28:04.365Z,7.80
2023-11-10T06:33:08.889Z,7.80
2023-11-10T06:38:12.476Z,7.60
2023-11-10T06:43:15.553Z,7.70
2023-11-10T06:48:20.181Z,7.80
2023-11-10T06:53:23.293Z,7.80
2023-11-10T06:58:26.405Z,7.90
2023-11-10T07:03:31.928Z,7.90
2023-11-10T07:08:36.054Z,7.90
2023-11-10T07:13:39.118Z,7.90
2023-11-10T07:18:43.656Z,7.90
2023-11-10T07:23:46.826Z,8.00
2023-11-10T07:28:50.134Z,8.10
2023-11-10T07:33:54.790Z,8.20
2023-11-10T07:38:57.890Z,8.30
2023-11-10T07:44:01.021Z,8.50
2023-11-10T07:49:06.081Z,8.50
2023-11-10T07:54:09.247Z,8.70
2023-11-10T07:59:12.347Z,8.70
2023-11-10T08:04:17.128Z,8.70
2023-11-10T08:09:22.274Z,9.00
2023-11-10T08:14:26.959Z,9.00
2023-11-10T08:19:31.429Z,9.20
2023-11-10T08:24:34.780Z,9.10
2023-11-10T08:29:37.875Z,9.00
2023-11-10T08:34:42.428Z,9.10
2023-11-10T08:39:45.751Z,9.30
2023-11-10T08:44:49.840Z,9.50
2023-11-10T08:49:57.316Z,9.70
2023-11-10T08:55:01.100Z,10.00
2023-11-10T09:00:04.740Z,10.10
2023-11-10T09:05:11.192Z,10.10
2023-11-10T09:10:14.340Z,10.10
2023-11-10T09:15:17.610Z,9.90
2023-11-10T09:20:22.441Z,9.70
2023-11-10T09:25:25.798Z,9.80
2023-11-10T09:30:29.071Z,10.00
2023-11-10T09:35:35.039Z,10.20
2023-11-10T09:40:38.318Z,10.50
2023-11-10T09:45:44.482Z,10.00
2023-11-10T09:50:51.424Z,10.00
2023-11-10T09:55:56.274Z,10.10
2023-11-10T10:00:59.803Z,10.00
2023-11-10T10:06:04.555Z,10.10
2023-11-10T10:11:08.031Z,10.00
2023-11-10T10:16:12.328Z,10.50
2023-11-10T10:21:17.114Z,10.30
2023-11-10T10:26:20.413Z,10.20
2023-11-10T10:31:23.594Z,10.10
2023-11-10T10:36:28.308Z,10.10
2023-11-10T10:41:33.282Z,10.10
2023-11-10T10:46:37.687Z,9.90
2023-11-10T10:51:42.358Z,9.90
2023-11-10T10:56:46.211Z,10.00
2023-11-10T11:01:50.975Z,10.00
2023-11-10T11:07:24.815Z,10.10
2023-11-10T11:12:52.106Z,10.00
2023-11-10T11:18:06.747Z,9.90
2023-11-10T11:23:14.957Z,9.70
2023-11-10T11:28:27.073Z,9.90
2023-11-10T11:33:30.244Z,10.10
2023-11-10T11:38:36.920Z,10.50
2023-11-10T11:43:50.469Z,10.60
2023-11-10T11:48:53.714Z,10.60
2023-11-10T11:53:58.161Z,10.70
2023-11-10T11:59:01.352Z,10.90
2023-11-10T12:04:04.954Z,10.90
2023-11-10T12:09:09.523Z,10.70
2023-11-10T12:14:13.518Z,10.60
2023-11-10T12:19:19.569Z,10.40
2023-11-10T12:24:27.657Z,10.30
2023-11-10T12:29:31.811Z,10.40
2023-11-10T12:34:38.239Z,10.40
2023-11-10T12:39:44.721Z,10.50
2023-11-10T12:44:56.445Z,10.40
2023-11-10T12:50:00.660Z,10.90
2023-11-10T12:55:05.636Z,11.10
2023-11-10T13:00:10.936Z,11.10
2023-11-10T13:05:15.587Z,11.10
2023-11-10T13:10:20.257Z,11.10
2023-11-10T13:15:23.417Z,11.40
2023-11-10T13:20:29.455Z,11.20
2023-11-10T13:25:34.705Z,11.40
2023-11-10T13:30:37.845Z,11.10
2023-11-10T13:35:41.280Z,11.40
2023-11-10T13:40:46.005Z,11.60
2023-11-10T13:45:49.195Z,11.60
2023-11-10T13:50:52.473Z,11.40
2023-11-10T13:55:56.986Z,11.20
2023-11-10T14:01:00.113Z,11.10
2023-11-10T14:06:09.283Z,10.90
2023-11-10T14:11:14.296Z,11.00
2023-11-10T14:16:17.527Z,11.20
2023-11-10T14:21:23.192Z,10.80
2023-11-10T14:26:27.841Z,10.50
2023-11-10T14:31:31.396Z,10.20
2023-11-10T14:36:34.754Z,10.10
2023-11-10T14:41:39.393Z,10.20
2023-11-10T14:46:42.772Z,10.20
2023-11-10T14:51:53.669Z,10.00
2023-11-10T14:56:58.139Z,9.80
2023-11-10T15:02:02.976Z,9.80
2023-11-10T15:07:06.462Z,9.80
2023-11-10T15:12:12.022Z,9.80
2023-11-10T15:17:15.096Z,9.70
2023-11-10T15:22:18.183Z,9.60
2023-11-10T15:27:23.124Z,9.50
2023-11-10T15:32:26.250Z,9.60
2023-11-10T15:37:32.421Z,9.50
2023-11-10T15:42:37.252Z,9.40
2023-11-10T15:47:40.461Z,9.30
2023-11-10T15:52:43.610Z,9.30
2023-11-10T15:57:49.874Z,9.20
2023-11-10T16:02:53.768Z,9.20
2023-11-10T16:07:57.064Z,9.20
2023-11-10T16:13:01.820Z,9.20
2023-11-10T16:18:05.067Z,9.10
2023-11-10T16:23:08.735Z,9.00
2023-11-10T16:28:15.073Z,8.90
2023-11-10T16:33:18.332Z,8.80
2023-11-10T16:38:21.617Z,8.80
2023-11-10T16:43:26.152Z,8.70
2023-11-10T16:48:29.241Z,8.60
2023-11-10T16:53:32.288Z,8.50
2023-11-10T16:58:36.886Z,8.40
2023-11-10T17:03:40.257Z,8.30
2023-11-10T17:08:44.469Z,8.20
2023-11-10T17:13:48.982Z,8.20
2023-11-10T17:18:52.387Z,8.20
2023-11-10T17:23:55.631Z,8.20
2023-11-10T17:29:01.450Z,8.10
2023-11-10T17:34:06.563Z,8.20
2023-11-10T17:39:10.376Z,8.10
2023-11-10T17:44:15.355Z,8.10
2023-11-10T17:49:18.448Z,8.10
2023-11-10T17:54:21.606Z,8.10
2023-11-10T17:59:26.649Z,8.00
2023-11-10T18:04:29.837Z,7.80
2023-11-10T18:09:33.113Z,7.70
2023-11-10T18:14:38.637Z,7.60
2023-11-10T18:19:42.937Z,7.60
2023-11-10T18:24:47.463Z,7.60
2023-11-10T18:29:52.520Z,7.50
2023-11-10T18:34:55.732Z,7.50
2023-11-10T18:39:59.087Z,7.50
2023-11-10T18:45:04.326Z,7.50
2023-11-10T18:50:09.445Z,7.50
2023-11-10T18:55:13.056Z,7.40
2023-11-10T19:00:18.591Z,7.40
2023-11-10T19:05:23.794Z,7.40
2023-11-10T19:10:28.134Z,7.40
2023-11-10T19:15:32.931Z,7.40
2023-11-10T19:20:37.032Z,7.30
2023-11-10T19:25:40.592Z,7.20
2023-11-10T19:30:45.233Z,7.20
2023-11-10T19:35:49.401Z,7.10
2023-11-10T19:40:52.850Z,7.00
2023-11-10T19:45:57.361Z,7.10
2023-11-10T19:51:01.080Z,7.00
2023-11-10T19:56:04.641Z,7.00
2023-11-10T20:01:09.362Z,7.10
2023-11-10T20:06:12.513Z,7.10
2023-11-10T20:11:19.896Z,7.10
2023-11-10T20:16:25.398Z,7.10
2023-11-10T20:21:28.774Z,7.10
2023-11-10T20:26:31.918Z,7.20
2023-11-10T20:31:36.510Z,7.20
2023-11-10T20:36:39.713Z,7.30
2023-11-10T20:41:43.371Z,7.30
2023-11-10T20:46:48.178Z,7.40
2023-11-10T20:51:51.266Z,7.40
2023-11-10T20:56:54.497Z,7.40
2023-11-10T21:01:59.012Z,7.40
2023-11-10T21:07:02.142Z,7.30
2023-11-10T21:12:06.778Z,7.20
2023-11-10T21:17:11.433Z,7.20
2023-11-10T21:22:14.551Z,7.20
2023-11-10T21:27:17.662Z,7.10
2023-11-10T21:32:22.523Z,7.20
2023-11-10T21:37:25.694Z,7.10
2023-11-10T21:42:28.841Z,7.10
2023-11-10T21:47:34.498Z,7.10
2023-11-10T21:52:37.627Z,7.10
2023-11-10T21:57:41.681Z,7.10
2023-11-10T22:02:46.297Z,7.10
2023-11-10T22:07:49.519Z,7.10
2023-11-10T22:12:53.785Z,7.10
2023-11-10T22:17:58.263Z,7.10
2023-11-10T22:23:01.792Z,7.10
2023-11-10T22:28:05.590Z,7.10
2023-11-10T22:33:10.183Z,7.10
2023-11-10T22:38:13.294Z,7.20
2023-11-10T22:43:16.803Z,7.10
2023-11-10T22:48:21.375Z,7.10
2023-11-10T22:53:24.571Z,7.10
2023-11-10T22:58:27.626Z,7.10
2023-11-10T23:03:32.316Z,7.10
2023-11-10T23:08:35.451Z,7.10
2023-11-10T23:13:42.199Z,7.20
2023-11-10T23:18:47.214Z,7.20
2023-11-10T23:23:50.657Z,7.30
2023-11-10T23:28:53.735Z,7.20
2023-11-10T23:33:58.237Z,7.20
2023-11-10T23:39:01.460Z,7.30
2023-11-10T23:44:04.723Z,7.30
2023-11-10T23:49:09.827Z,7.40
2023-11-10T23:54:13.122Z,7.40
2023-11-10T23:59:16.426Z,7.40
